Terminal Aerodrome Forecast
Issued by NWS Rapid City, SD

Home | Current Version | Previous Version | Text Only | Print | Product List | Glossary On
Versions: 1 2 3 4 5 6 7 8 9 10 11 12 13 14
251
FTUS43 KUNR 172332
TAFRAP
TAF
KRAP 172332Z 1800/1824 17007KT P6SM SCT200
     FM180100 20007KT P6SM SCT200
     FM180500 24006KT P6SM SCT200
     FM180800 29012KT P6SM SCT200 WS020/32045KT
     FM181100 32016G26KT P6SM SCT250
     FM182000 03011KT P6SM SKC
     FM182300 11009KT P6SM SKC=

USA.gov is the U.S. government's official web portal to all federal, state and local government web resources and services.